Time;durP1;ratioP1;P1;durP2;ratioP2;P2;SDS_P1;SDS_P2;PMS_P1;PMS_P2;Temp;Humidity;BMP_temperature;BMP_pressure;BME280_temperature;BME280_humidity;BME280_pressure;Samples;Min_cycle;Max_cycle;Signal;HPM_P1;HPM_P2
2023/07/08 00:01:13;;;;;;;;;;;;;;;;;;5033897;28;20012;-65
2023/07/08 00:03:40;;;;;;;;;;;;;;;;;;5034479;28;20279;-66
2023/07/08 00:06:09;;;;;;;;;;;;;;;;;;5034009;28;20121;-66
2023/07/08 00:08:36;;;;;;;;;;;;;;;;;;5034525;28;19925;-65
2023/07/08 00:11:08;;;;;;;;;;;;;;;;;;5033831;28;19947;-64
2023/07/08 00:13:35;;;;;;;;;;;;;;;;;;5034456;28;19925;-66
2023/07/08 00:16:01;;;;;;;;;;;;;;;;;;5033992;28;19925;-64
2023/07/08 00:18:27;;;;;;;;;;;;;;;;;;5034070;28;19929;-65
2023/07/08 00:20:54;;;;;;;;;;;;;;;;;;5033601;28;19931;-65
2023/07/08 00:23:21;;;;;;;;;;;;;;;;;;5034173;28;19925;-66
2023/07/08 00:25:49;;;;;;;;;;;;;;;;;;5034448;28;20039;-66
2023/07/08 00:28:17;;;;;;;;;;;;;;;;;;5033698;28;19928;-65
2023/07/08 00:30:44;;;;;;;;;;;;;;;;;;5033829;28;19934;-66
2023/07/08 00:33:10;;;;;;;;;;;;;;;;;;5033557;28;20298;-66
2023/07/08 00:35:37;;;;;;;;;;;;;;;;;;5033851;28;20305;-66
2023/07/08 00:38:12;;;;;;;;;;;;;;;;;;5033547;28;20023;-65
2023/07/08 00:40:38;;;;;;;;;;;;;;;;;;5033481;28;19992;-65
2023/07/08 00:43:06;;;;;;;;;;;;;;;;;;5033285;28;19925;-65
2023/07/08 00:45:40;;;;;;;;;;;;;;;;;;5033791;28;20379;-65
2023/07/08 00:48:11;;;;;;;;;;;;;;;;;;5033376;28;19932;-66
2023/07/08 00:50:38;;;;;;;;;;;;;;;;;;5033378;28;19929;-64
2023/07/08 00:53:24;;;;;;;;;;;;;;;;;;5033596;28;19948;-65
2023/07/08 00:55:50;;;;;;;;;;;;;;;;;;5033469;28;19932;-65
2023/07/08 00:58:19;;;;;;;;;;;;;;;;;;5033045;28;20312;-65
2023/07/08 01:00:46;;;;;;;;;;;;;;;;;;5032150;28;20302;-66
2023/07/08 01:03:12;;;;;;;;;;;;;;;;;;5033066;28;19933;-65
2023/07/08 01:05:39;;;;;;;;;;;;;;;;;;5033313;28;20427;-65
2023/07/08 01:08:06;;;;;;;;;;;;;;;;;;5033092;28;19925;-66
2023/07/08 01:10:34;;;;;;;;;;;;;;;;;;5032321;28;20019;-64
2023/07/08 01:13:03;;;;;;;;;;;;;;;;;;5032941;28;20020;-65
2023/07/08 01:15:34;;;;;;;;;;;;;;;;;;5032609;28;19931;-65
2023/07/08 01:18:00;;;;;;;;;;;;;;;;;;5033086;28;19925;-66
2023/07/08 01:20:27;;;;;;;;;;;;;;;;;;5032380;28;19925;-63
2023/07/08 01:22:54;;;;;;;;;;;;;;;;;;5033050;28;19925;-64
2023/07/08 01:25:21;;;;;;;;;;;;;;;;;;5032456;28;20297;-64
2023/07/08 01:27:50;;;;;;;;;;;;;;;;;;5032947;28;20019;-65
2023/07/08 01:30:17;;;;;;;;;;;;;;;;;;5032203;28;19929;-66
2023/07/08 01:32:46;;;;;;;;;;;;;;;;;;5033190;28;20361;-64
2023/07/08 01:35:13;;;;;;;;;;;;;;;;;;5032826;28;20397;-66
2023/07/08 01:37:41;;;;;;;;;;;;;;;;;;5032815;28;19925;-64
2023/07/08 01:40:16;;;;;;;;;;;;;;;;;;5031958;28;20396;-65
2023/07/08 01:42:42;;;;;;;;;;;;;;;;;;5032633;28;20409;-66
2023/07/08 01:45:11;;;;;;;;;;;;;;;;;;5032344;28;19929;-65
2023/07/08 01:47:37;;;;;;;;;;;;;;;;;;5032486;28;19932;-64
2023/07/08 01:50:04;;;;;;;;;;;;;;;;;;5031356;28;19931;-66
2023/07/08 01:52:30;;;;;;;;;;;;;;;;;;5031720;28;19931;-66
2023/07/08 01:54:57;;;;;;;;;;;;;;;;;;5032174;28;20209;-66
2023/07/08 01:57:24;;;;;;;;;;;;;;;;;;5031511;28;19925;-65
2023/07/08 01:59:51;;;;;;;;;;;;;;;;;;5037998;28;19925;-65
2023/07/08 02:02:17;;;;;;;;;;;;;;;;;;5051719;28;19925;-65
2023/07/08 02:04:44;;;;;;;;;;;;;;;;;;5051877;28;19925;-65
2023/07/08 02:07:10;;;;;;;;;;;;;;;;;;5051364;28;19940;-63
2023/07/08 02:09:36;;;;;;;;;;;;;;;;;;5051626;28;20015;-65
2023/07/08 02:12:03;;;;;;;;;;;;;;;;;;5051844;28;19951;-65
2023/07/08 02:14:31;;;;;;;;;;;;;;;;;;5051695;28;19925;-66
2023/07/08 02:16:57;;;;;;;;;;;;;;;;;;5050769;28;19940;-65
2023/07/08 02:19:24;;;;;;;;;;;;;;;;;;5029268;28;19932;-66
2023/07/08 02:21:51;;;;;;;;;;;;;;;;;;5030873;28;20406;-66
2023/07/08 02:24:18;;;;;;;;;;;;;;;;;;5031277;28;19925;-65
2023/07/08 02:26:47;;;;;;;;;;;;;;;;;;5031954;28;20394;-66
2023/07/08 02:29:13;;;;;;;;;;;;;;;;;;5031511;28;19929;-64
2023/07/08 02:31:41;;;;;;;;;;;;;;;;;;5031752;28;19929;-64
2023/07/08 02:34:07;;;;;;;;;;;;;;;;;;5031444;28;20397;-65
2023/07/08 02:36:34;;;;;;;;;;;;;;;;;;5031622;28;20016;-66
2023/07/08 02:39:00;;;;;;;;;;;;;;;;;;5031708;28;19932;-66
2023/07/08 02:41:27;;;;;;;;;;;;;;;;;;5031201;28;19931;-66
2023/07/08 02:43:53;;;;;;;;;;;;;;;;;;5031708;28;20016;-65
2023/07/08 02:46:19;;;;;;;;;;;;;;;;;;5031120;28;20311;-65
2023/07/08 02:48:47;;;;;;;;;;;;;;;;;;5030794;28;20015;-66
2023/07/08 02:51:14;;;;;;;;;;;;;;;;;;5030945;28;19925;-65
2023/07/08 02:53:40;;;;;;;;;;;;;;;;;;5031118;28;19925;-65
2023/07/08 02:56:06;;;;;;;;;;;;;;;;;;5030719;28;19925;-65
2023/07/08 02:58:34;;;;;;;;;;;;;;;;;;5031225;28;20132;-64
2023/07/08 03:01:00;;;;;;;;;;;;;;;;;;5030504;28;20067;-66
2023/07/08 03:03:28;;;;;;;;;;;;;;;;;;5031308;28;19948;-65
2023/07/08 03:05:57;;;;;;;;;;;;;;;;;;5031053;28;19975;-65
2023/07/08 03:08:23;;;;;;;;;;;;;;;;;;5031162;28;19932;-65
2023/07/08 03:10:54;;;;;;;;;;;;;;;;;;5030970;28;20126;-65
2023/07/08 03:13:21;;;;;;;;;;;;;;;;;;5030701;28;20383;-65
2023/07/08 03:15:47;;;;;;;;;;;;;;;;;;5030897;28;20008;-66
2023/07/08 03:18:13;;;;;;;;;;;;;;;;;;5040303;28;20004;-66
2023/07/08 03:20:40;;;;;;;;;;;;;;;;;;5050710;28;19924;-67
2023/07/08 03:23:08;;;;;;;;;;;;;;;;;;5049898;28;19931;-66
2023/07/08 03:25:36;;;;;;;;;;;;;;;;;;5050806;28;19925;-67
2023/07/08 03:28:03;;;;;;;;;;;;;;;;;;5050042;28;19931;-66
2023/07/08 03:30:29;;;;;;;;;;;;;;;;;;5050135;28;20314;-66
2023/07/08 03:32:55;;;;;;;;;;;;;;;;;;5050678;28;19925;-66
2023/07/08 03:35:22;;;;;;;;;;;;;;;;;;5031856;28;19925;-63
2023/07/08 03:37:49;;;;;;;;;;;;;;;;;;5030095;28;19928;-66
2023/07/08 03:40:16;;;;;;;;;;;;;;;;;;5032685;28;20019;-66
2023/07/08 03:42:43;;;;;;;;;;;;;;;;;;5050262;28;19925;-68
2023/07/08 03:45:10;;;;;;;;;;;;;;;;;;5049892;28;20023;-68
2023/07/08 03:47:37;;;;;;;;;;;;;;;;;;5050628;28;19932;-68
2023/07/08 03:50:03;;;;;;;;;;;;;;;;;;5049463;28;19925;-67
2023/07/08 03:52:30;;;;;;;;;;;;;;;;;;5050319;28;19928;-68
2023/07/08 03:54:57;;;;;;;;;;;;;;;;;;5050236;28;19925;-68
2023/07/08 03:57:25;;;;;;;;;;;;;;;;;;5050104;28;19925;-68
2023/07/08 03:59:51;;;;;;;;;;;;;;;;;;5049014;28;19947;-68
2023/07/08 04:02:17;;;;;;;;;;;;;;;;;;5048397;28;19943;-68
2023/07/08 04:04:44;;;;;;;;;;;;;;;;;;5049769;28;20004;-68
2023/07/08 04:07:12;;;;;;;;;;;;;;;;;;5050010;28;19931;-68
2023/07/08 04:09:38;;;;;;;;;;;;;;;;;;5049747;28;19939;-67
2023/07/08 04:12:05;;;;;;;;;;;;;;;;;;5049818;28;20007;-68
2023/07/08 04:14:33;;;;;;;;;;;;;;;;;;5050460;28;20011;-68
2023/07/08 04:16:59;;;;;;;;;;;;;;;;;;5049589;28;19931;-68
2023/07/08 04:19:26;;;;;;;;;;;;;;;;;;5050140;28;19947;-68
2023/07/08 04:21:53;;;;;;;;;;;;;;;;;;5049068;28;19931;-67
2023/07/08 04:24:19;;;;;;;;;;;;;;;;;;5049904;28;20154;-68
2023/07/08 04:26:47;;;;;;;;;;;;;;;;;;5049102;28;19925;-68
2023/07/08 04:29:14;;;;;;;;;;;;;;;;;;5049707;28;19931;-68
2023/07/08 04:31:42;;;;;;;;;;;;;;;;;;5049118;28;20682;-68
2023/07/08 04:34:08;;;;;;;;;;;;;;;;;;5036016;28;20366;-67
2023/07/08 04:36:35;;;;;;;;;;;;;;;;;;5053588;28;19924;-68
2023/07/08 04:39:01;;;;;;;;;;;;;;;;;;5053372;28;19925;-69
2023/07/08 04:41:28;;;;;;;;;;;;;;;;;;5052350;28;19929;-68
2023/07/08 04:43:53;;;;;;;;;;;;;;;;;;5053593;28;20335;-68
2023/07/08 04:46:21;;;;;;;;;;;;;;;;;;5053698;28;20015;-68
2023/07/08 04:48:49;;;;;;;;;;;;;;;;;;5053042;28;20367;-68
2023/07/08 04:51:15;;;;;;;;;;;;;;;;;;5052983;28;19931;-68
2023/07/08 04:53:42;;;;;;;;;;;;;;;;;;5053061;28;19931;-68
2023/07/08 04:56:08;;;;;;;;;;;;;;;;;;5053967;28;20263;-67
2023/07/08 04:58:35;;;;;;;;;;;;;;;;;;5053066;28;20254;-68
2023/07/08 05:01:01;;;;;;;;;;;;;;;;;;5052702;28;19931;-67
2023/07/08 05:03:27;;;;;;;;;;;;;;;;;;5051789;28;20356;-68
2023/07/08 05:05:55;;;;;;;;;;;;;;;;;;5052992;28;19931;-68
2023/07/08 05:08:21;;;;;;;;;;;;;;;;;;5052198;28;20399;-68
2023/07/08 05:10:48;;;;;;;;;;;;;;;;;;5052818;28;20016;-68
2023/07/08 05:13:14;;;;;;;;;;;;;;;;;;5053053;28;20016;-69
2023/07/08 05:15:41;;;;;;;;;;;;;;;;;;5052852;28;20299;-68
2023/07/08 05:18:07;;;;;;;;;;;;;;;;;;5052800;28;20003;-68
2023/07/08 05:20:35;;;;;;;;;;;;;;;;;;5051835;28;19929;-67
2023/07/08 05:23:02;;;;;;;;;;;;;;;;;;5052596;28;19929;-68
2023/07/08 05:25:32;;;;;;;;;;;;;;;;;;5052455;28;20354;-68
2023/07/08 05:27:59;;;;;;;;;;;;;;;;;;5052788;28;19931;-68
2023/07/08 05:30:26;;;;;;;;;;;;;;;;;;5051780;28;20002;-68
2023/07/08 05:32:54;;;;;;;;;;;;;;;;;;5043355;28;20280;-67
2023/07/08 05:35:20;;;;;;;;;;;;;;;;;;5031250;28;20024;-68
2023/07/08 05:37:47;;;;;;;;;;;;;;;;;;5032361;28;19929;-68
2023/07/08 05:40:14;;;;;;;;;;;;;;;;;;5031858;28;19987;-68
2023/07/08 05:42:41;;;;;;;;;;;;;;;;;;5032309;28;19925;-68
2023/07/08 05:45:10;;;;;;;;;;;;;;;;;;5032348;28;20367;-68
2023/07/08 05:47:36;;;;;;;;;;;;;;;;;;5031605;28;19995;-68
2023/07/08 05:50:03;;;;;;;;;;;;;;;;;;5031552;28;19972;-68
2023/07/08 05:52:29;;;;;;;;;;;;;;;;;;5032064;28;20296;-68
2023/07/08 05:54:56;;;;;;;;;;;;;;;;;;5032443;28;19925;-68
2023/07/08 05:57:24;;;;;;;;;;;;;;;;;;5031924;28;19933;-68
2023/07/08 05:59:50;;;;;;;;;;;;;;;;;;5031952;28;19987;-68
2023/07/08 06:02:19;;;;;;;;;;;;;;;;;;5031121;28;19929;-68
2023/07/08 06:04:45;;;;;;;;;;;;;;;;;;5031924;28;20387;-68
2023/07/08 06:07:12;;;;;;;;;;;;;;;;;;5031923;28;20286;-68
2023/07/08 06:09:38;;;;;;;;;;;;;;;;;;5031508;28;20008;-68
2023/07/08 06:12:05;;;;;;;;;;;;;;;;;;5031456;28;20438;-68
2023/07/08 06:14:33;;;;;;;;;;;;;;;;;;5031938;28;19968;-68
2023/07/08 06:16:59;;;;;;;;;;;;;;;;;;5031368;28;19925;-68
2023/07/08 06:19:25;;;;;;;;;;;;;;;;;;5031731;28;19931;-68
2023/07/08 06:21:52;;;;;;;;;;;;;;;;;;5031068;28;19932;-68
2023/07/08 06:24:18;;;;;;;;;;;;;;;;;;5031637;28;20272;-68
2023/07/08 06:26:45;;;;;;;;;;;;;;;;;;5031635;28;19925;-68
2023/07/08 06:29:11;;;;;;;;;;;;;;;;;;5030189;28;19936;-68
2023/07/08 06:31:39;;;;;;;;;;;;;;;;;;5031151;28;20657;-68
2023/07/08 06:34:05;;;;;;;;;;;;;;;;;;5039179;28;19926;-68
2023/07/08 06:36:32;;;;;;;;;;;;;;;;;;5031631;28;20393;-68
2023/07/08 06:38:58;;;;;;;;;;;;;;;;;;5030825;28;19925;-68
2023/07/08 06:41:24;;;;;;;;;;;;;;;;;;5030498;28;19925;-68
2023/07/08 06:43:51;;;;;;;;;;;;;;;;;;5029733;28;20040;-68
2023/07/08 06:46:18;;;;;;;;;;;;;;;;;;5031124;28;19932;-68
2023/07/08 06:48:46;;;;;;;;;;;;;;;;;;5031369;28;19964;-68
2023/07/08 06:51:12;;;;;;;;;;;;;;;;;;5030196;28;19925;-68
2023/07/08 06:53:39;;;;;;;;;;;;;;;;;;5031077;28;19925;-68
2023/07/08 06:56:05;;;;;;;;;;;;;;;;;;5030573;28;20011;-68
2023/07/08 06:58:32;;;;;;;;;;;;;;;;;;5030788;28;19968;-68
2023/07/08 07:00:58;;;;;;;;;;;;;;;;;;5029988;28;20016;-68
2023/07/08 07:03:24;;;;;;;;;;;;;;;;;;5029803;28;20396;-68
2023/07/08 07:05:52;;;;;;;;;;;;;;;;;;5030583;28;19935;-68
2023/07/08 07:08:18;;;;;;;;;;;;;;;;;;5031345;28;19925;-68
2023/07/08 07:10:45;;;;;;;;;;;;;;;;;;5029469;28;20004;-68
2023/07/08 07:13:11;;;;;;;;;;;;;;;;;;5030562;28;19982;-68
2023/07/08 07:15:38;;;;;;;;;;;;;;;;;;5030867;28;19976;-68
2023/07/08 07:18:04;;;;;;;;;;;;;;;;;;5030121;28;19931;-67
2023/07/08 07:20:31;;;;;;;;;;;;;;;;;;5030151;28;19929;-68
2023/07/08 07:22:59;;;;;;;;;;;;;;;;;;5045432;28;19925;-68
2023/07/08 07:25:25;;;;;;;;;;;;;;;;;;5050620;28;19933;-68
2023/07/08 07:27:51;;;;;;;;;;;;;;;;;;5049889;28;20038;-68
2023/07/08 07:30:18;;;;;;;;;;;;;;;;;;5050011;28;19935;-67
2023/07/08 07:32:45;;;;;;;;;;;;;;;;;;5050538;28;19924;-68
2023/07/08 07:35:12;;;;;;;;;;;;;;;;;;5034422;28;20299;-68
2023/07/08 07:37:39;;;;;;;;;;;;;;;;;;5030210;28;19925;-68
2023/07/08 07:40:12;;;;;;;;;;;;;;;;;;5029910;28;20399;-69
2023/07/08 07:42:38;;;;;;;;;;;;;;;;;;5029761;28;19925;-68
2023/07/08 07:45:07;;;;;;;;;;;;;;;;;;5029907;28;20139;-66
2023/07/08 07:47:33;;;;;;;;;;;;;;;;;;5030517;28;19932;-69
2023/07/08 07:50:00;;;;;;;;;;;;;;;;;;5029719;28;19925;-67
2023/07/08 07:52:26;;;;;;;;;;;;;;;;;;5030500;28;20367;-66
2023/07/08 07:54:53;;;;;;;;;;;;;;;;;;5029773;28;19925;-62
2023/07/08 07:57:21;;;;;;;;;;;;;;;;;;5030248;28;19929;-64
2023/07/08 07:59:48;;;;;;;;;;;;;;;;;;5029434;28;19926;-64
2023/07/08 08:02:14;;;;;;;;;;;;;;;;;;5031456;28;20037;-66
2023/07/08 08:04:41;;;;;;;;;;;;;;;;;;5049662;28;20391;-66
2023/07/08 08:07:07;;;;;;;;;;;;;;;;;;5050110;28;20285;-65
2023/07/08 08:09:34;;;;;;;;;;;;;;;;;;5050359;28;20011;-65
2023/07/08 08:12:02;;;;;;;;;;;;;;;;;;5054476;28;20293;-64
2023/07/08 08:14:29;;;;;;;;;;;;;;;;;;5053920;28;19925;-64
2023/07/08 08:16:56;;;;;;;;;;;;;;;;;;5054194;28;19932;-64
2023/07/08 08:19:22;;;;;;;;;;;;;;;;;;5053837;28;19924;-65
2023/07/08 08:21:49;;;;;;;;;;;;;;;;;;5053168;28;19948;-67
2023/07/08 08:24:15;;;;;;;;;;;;;;;;;;5054196;28;19925;-67
2023/07/08 08:26:41;;;;;;;;;;;;;;;;;;5053676;28;19932;-67
2023/07/08 08:29:08;;;;;;;;;;;;;;;;;;5053904;28;19931;-67
2023/07/08 08:31:35;;;;;;;;;;;;;;;;;;5052910;28;20382;-67
2023/07/08 08:34:02;;;;;;;;;;;;;;;;;;5034729;28;19935;-68
2023/07/08 08:36:28;;;;;;;;;;;;;;;;;;5033452;28;20385;-68
2023/07/08 08:38:55;;;;;;;;;;;;;;;;;;5033283;28;20011;-67
2023/07/08 08:41:31;;;;;;;;;;;;;;;;;;5032532;28;20007;-68
2023/07/08 08:43:59;;;;;;;;;;;;;;;;;;5033740;28;19925;-67
2023/07/08 08:46:28;;;;;;;;;;;;;;;;;;5032948;28;19925;-68
2023/07/08 08:48:59;;;;;;;;;;;;;;;;;;5033414;28;19931;-68
2023/07/08 08:51:27;;;;;;;;;;;;;;;;;;5032242;28;19925;-68
2023/07/08 08:53:54;;;;;;;;;;;;;;;;;;5033721;28;20329;-67
2023/07/08 08:56:23;;;;;;;;;;;;;;;;;;5033291;28;19925;-68
2023/07/08 08:58:52;;;;;;;;;;;;;;;;;;5033093;28;19947;-68
2023/07/08 09:01:19;;;;;;;;;;;;;;;;;;5033118;28;19925;-68
2023/07/08 09:03:48;;;;;;;;;;;;;;;;;;5031859;28;19925;-68
2023/07/08 09:06:19;;;;;;;;;;;;;;;;;;5033066;28;19931;-68
2023/07/08 09:08:46;;;;;;;;;;;;;;;;;;5032714;28;19925;-68
2023/07/08 09:11:18;;;;;;;;;;;;;;;;;;5032672;28;19925;-68
2023/07/08 09:13:44;;;;;;;;;;;;;;;;;;5032965;28;20311;-68
2023/07/08 09:16:14;;;;;;;;;;;;;;;;;;5032921;28;20100;-67
2023/07/08 09:18:45;;;;;;;;;;;;;;;;;;5033023;28;19929;-68
2023/07/08 09:21:18;;;;;;;;;;;;;;;;;;5052009;28;19998;-67
2023/07/08 09:23:46;;;;;;;;;;;;;;;;;;5052343;28;19931;-68
2023/07/08 09:26:15;;;;;;;;;;;;;;;;;;5052921;28;19924;-68
2023/07/08 09:28:43;;;;;;;;;;;;;;;;;;5052141;28;20396;-68
2023/07/08 09:31:18;;;;;;;;;;;;;;;;;;5052155;28;20286;-68
2023/07/08 09:33:44;;;;;;;;;;;;;;;;;;5048289;28;20409;-68
2023/07/08 09:36:19;;;;;;;;;;;;;;;;;;5032734;28;19932;-68
2023/07/08 09:38:48;;;;;;;;;;;;;;;;;;5032675;28;20379;-68
2023/07/08 09:41:14;;;;;;;;;;;;;;;;;;5031625;28;20268;-66
2023/07/08 09:43:40;;;;;;;;;;;;;;;;;;5032395;28;20024;-66
2023/07/08 09:46:12;;;;;;;;;;;;;;;;;;5032190;28;20409;-66
2023/07/08 09:48:39;;;;;;;;;;;;;;;;;;5032640;28;19932;-66
2023/07/08 09:51:08;;;;;;;;;;;;;;;;;;5031559;28;20015;-66
2023/07/08 09:53:35;;;;;;;;;;;;;;;;;;5032411;28;20341;-66
2023/07/08 09:56:04;;;;;;;;;;;;;;;;;;5032077;28;19935;-66
2023/07/08 09:58:31;;;;;;;;;;;;;;;;;;5032270;28;20387;-66
2023/07/08 10:00:59;;;;;;;;;;;;;;;;;;5031333;28;20413;-66
2023/07/08 10:03:27;;;;;;;;;;;;;;;;;;5031360;28;19929;-66
2023/07/08 10:05:57;;;;;;;;;;;;;;;;;;5032191;28;20387;-66
2023/07/08 10:08:23;;;;;;;;;;;;;;;;;;5032204;28;19924;-66
2023/07/08 10:10:56;;;;;;;;;;;;;;;;;;5031466;28;20136;-66
2023/07/08 10:13:24;;;;;;;;;;;;;;;;;;5032093;28;19935;-66
2023/07/08 10:15:53;;;;;;;;;;;;;;;;;;5031879;28;19931;-66
2023/07/08 10:18:28;;;;;;;;;;;;;;;;;;5031430;28;19925;-65
2023/07/08 10:20:59;;;;;;;;;;;;;;;;;;5031380;28;19924;-65
2023/07/08 10:23:28;;;;;;;;;;;;;;;;;;5031821;28;19932;-66
2023/07/08 10:26:07;;;;;;;;;;;;;;;;;;5032076;28;19925;-66
2023/07/08 10:28:37;;;;;;;;;;;;;;;;;;5030731;28;19931;-66
2023/07/08 10:31:17;;;;;;;;;;;;;;;;;;5031294;28;19936;-66
2023/07/08 10:34:02;;;;;;;;;;;;;;;;;;5030586;28;20357;-66
2023/07/08 10:36:31;;;;;;;;;;;;;;;;;;5031159;28;19936;-66
2023/07/08 10:39:06;;;;;;;;;;;;;;;;;;5030810;28;20295;-66
2023/07/08 10:41:37;;;;;;;;;;;;;;;;;;5030826;28;20374;-66
2023/07/08 10:44:07;;;;;;;;;;;;;;;;;;5031379;28;20330;-66
2023/07/08 10:46:39;;;;;;;;;;;;;;;;;;5031456;28;19925;-66
2023/07/08 10:49:09;;;;;;;;;;;;;;;;;;5031079;28;20309;-66
2023/07/08 10:51:39;;;;;;;;;;;;;;;;;;5031102;28;19939;-65
2023/07/08 10:54:16;;;;;;;;;;;;;;;;;;5030696;28;19925;-65
2023/07/08 10:56:51;;;;;;;;;;;;;;;;;;5031226;28;20412;-65
2023/07/08 10:59:25;;;;;;;;;;;;;;;;;;5030906;28;20295;-65
2023/07/08 11:02:02;;;;;;;;;;;;;;;;;;5030755;28;20021;-65
2023/07/08 11:04:39;;;;;;;;;;;;;;;;;;5010700;28;19955;-65
2023/07/08 11:07:10;;;;;;;;;;;;;;;;;;5011623;28;20012;-65
2023/07/08 11:09:41;;;;;;;;;;;;;;;;;;5010324;28;19925;-65
2023/07/08 11:12:13;;;;;;;;;;;;;;;;;;5011297;28;20303;-66
2023/07/08 11:14:43;;;;;;;;;;;;;;;;;;5011174;28;20401;-65
2023/07/08 11:17:16;;;;;;;;;;;;;;;;;;5010898;28;19997;-65
2023/07/08 11:19:46;;;;;;;;;;;;;;;;;;5010775;28;19933;-65
2023/07/08 11:22:14;;;;;;;;;;;;;;;;;;5010675;28;19929;-65
2023/07/08 11:24:44;;;;;;;;;;;;;;;;;;5010855;28;19925;-65
2023/07/08 11:27:18;;;;;;;;;;;;;;;;;;5010567;28;19925;-65
2023/07/08 11:29:46;;;;;;;;;;;;;;;;;;5010663;28;19925;-66
2023/07/08 11:32:15;;;;;;;;;;;;;;;;;;5012166;28;19936;-65
2023/07/08 11:34:43;;;;;;;;;;;;;;;;;;5041052;28;19932;-65
2023/07/08 11:37:10;;;;;;;;;;;;;;;;;;5050041;28;20338;-65
2023/07/08 11:39:39;;;;;;;;;;;;;;;;;;5050307;28;19925;-65
2023/07/08 11:42:16;;;;;;;;;;;;;;;;;;5049451;28;19925;-65
2023/07/08 11:44:43;;;;;;;;;;;;;;;;;;5049956;28;19933;-65
2023/07/08 11:47:14;;;;;;;;;;;;;;;;;;5049974;28;19925;-65
2023/07/08 11:49:41;;;;;;;;;;;;;;;;;;5049781;28;19969;-65
2023/07/08 11:52:14;;;;;;;;;;;;;;;;;;5049888;28;20027;-65
2023/07/08 11:54:45;;;;;;;;;;;;;;;;;;5050137;28;20003;-66
2023/07/08 11:57:17;;;;;;;;;;;;;;;;;;5049956;28;20031;-66
2023/07/08 11:59:44;;;;;;;;;;;;;;;;;;5050055;28;19928;-66
2023/07/08 12:02:13;;;;;;;;;;;;;;;;;;5048504;28;19932;-66
2023/07/08 12:04:53;;;;;;;;;;;;;;;;;;5049860;28;19924;-66
2023/07/08 12:07:20;;;;;;;;;;;;;;;;;;5049780;28;19928;-66
2023/07/08 12:09:48;;;;;;;;;;;;;;;;;;5049356;28;19925;-66
2023/07/08 12:12:21;;;;;;;;;;;;;;;;;;5050018;28;20385;-66
2023/07/08 12:14:48;;;;;;;;;;;;;;;;;;5049537;28;19925;-66
2023/07/08 12:17:15;;;;;;;;;;;;;;;;;;5049788;28;20012;-66
2023/07/08 12:19:44;;;;;;;;;;;;;;;;;;5048805;28;20294;-66
2023/07/08 12:22:11;;;;;;;;;;;;;;;;;;5050104;28;19944;-66
2023/07/08 12:24:38;;;;;;;;;;;;;;;;;;5049566;28;19925;-66
2023/07/08 12:27:05;;;;;;;;;;;;;;;;;;5049813;28;19978;-66
2023/07/08 12:29:33;;;;;;;;;;;;;;;;;;5049187;28;20352;-66
2023/07/08 12:32:00;;;;;;;;;;;;;;;;;;5048420;28;19924;-66
2023/07/08 12:34:26;;;;;;;;;;;;;;;;;;5028487;28;19932;-66
2023/07/08 12:36:53;;;;;;;;;;;;;;;;;;5029866;28;19925;-66
2023/07/08 12:39:20;;;;;;;;;;;;;;;;;;5030035;28;19995;-66
2023/07/08 12:41:47;;;;;;;;;;;;;;;;;;5029434;28;19925;-66
2023/07/08 12:44:19;;;;;;;;;;;;;;;;;;5030097;28;19933;-66
2023/07/08 12:46:47;;;;;;;;;;;;;;;;;;5029125;28;19925;-66
2023/07/08 12:49:14;;;;;;;;;;;;;;;;;;5029835;28;20424;-66
2023/07/08 12:51:42;;;;;;;;;;;;;;;;;;5029107;28;19931;-66
2023/07/08 12:54:10;;;;;;;;;;;;;;;;;;5029765;28;19925;-66
2023/07/08 12:56:37;;;;;;;;;;;;;;;;;;5030429;28;20035;-66
2023/07/08 12:59:04;;;;;;;;;;;;;;;;;;5033142;28;19925;-66
2023/07/08 13:01:32;;;;;;;;;;;;;;;;;;5032393;28;19925;-66
2023/07/08 13:04:02;;;;;;;;;;;;;;;;;;5032575;28;19925;-66
2023/07/08 13:06:30;;;;;;;;;;;;;;;;;;5032534;28;20040;-66
2023/07/08 13:09:02;;;;;;;;;;;;;;;;;;5032759;28;20007;-67
2023/07/08 13:11:28;;;;;;;;;;;;;;;;;;5031966;28;19932;-67
2023/07/08 13:13:56;;;;;;;;;;;;;;;;;;5032739;28;19932;-67
2023/07/08 13:16:24;;;;;;;;;;;;;;;;;;5032727;28;19925;-67
2023/07/08 13:18:50;;;;;;;;;;;;;;;;;;5032600;28;19931;-67
2023/07/08 13:21:18;;;;;;;;;;;;;;;;;;5032506;28;20302;-67
2023/07/08 13:23:45;;;;;;;;;;;;;;;;;;5032184;28;19932;-67
2023/07/08 13:26:15;;;;;;;;;;;;;;;;;;5032622;28;19925;-67
2023/07/08 13:28:44;;;;;;;;;;;;;;;;;;5031948;28;19929;-67
2023/07/08 13:31:15;;;;;;;;;;;;;;;;;;5032441;28;19929;-67
2023/07/08 13:33:45;;;;;;;;;;;;;;;;;;5041481;28;20484;-67
2023/07/08 13:36:18;;;;;;;;;;;;;;;;;;5032804;28;19925;-67
2023/07/08 13:38:46;;;;;;;;;;;;;;;;;;5031719;28;19932;-67
2023/07/08 13:41:19;;;;;;;;;;;;;;;;;;5031931;28;19936;-67
2023/07/08 13:43:46;;;;;;;;;;;;;;;;;;5032334;28;19925;-67
2023/07/08 13:46:26;;;;;;;;;;;;;;;;;;5032730;28;19932;-67
2023/07/08 13:48:53;;;;;;;;;;;;;;;;;;5032162;28;19925;-67
2023/07/08 13:51:20;;;;;;;;;;;;;;;;;;5031789;28;20295;-67
2023/07/08 13:53:50;;;;;;;;;;;;;;;;;;5032554;28;19947;-67
2023/07/08 13:56:19;;;;;;;;;;;;;;;;;;5032376;28;20175;-67
2023/07/08 13:58:47;;;;;;;;;;;;;;;;;;5032220;28;20286;-67
2023/07/08 14:01:16;;;;;;;;;;;;;;;;;;5031771;28;19976;-67
2023/07/08 14:03:42;;;;;;;;;;;;;;;;;;5030880;28;19932;-67
2023/07/08 14:06:12;;;;;;;;;;;;;;;;;;5031868;28;20035;-67
2023/07/08 14:08:38;;;;;;;;;;;;;;;;;;5031579;28;19931;-67
2023/07/08 14:11:07;;;;;;;;;;;;;;;;;;5031209;28;20002;-67
2023/07/08 14:13:34;;;;;;;;;;;;;;;;;;5031995;28;19932;-67
2023/07/08 14:16:01;;;;;;;;;;;;;;;;;;5031320;28;19931;-67
2023/07/08 14:18:27;;;;;;;;;;;;;;;;;;5031886;28;20371;-67
2023/07/08 14:20:53;;;;;;;;;;;;;;;;;;5033037;28;20397;-67
2023/07/08 14:23:20;;;;;;;;;;;;;;;;;;5051552;28;19947;-67
2023/07/08 14:25:46;;;;;;;;;;;;;;;;;;5050884;28;19924;-67
2023/07/08 14:28:14;;;;;;;;;;;;;;;;;;5051431;28;19931;-67
2023/07/08 14:30:42;;;;;;;;;;;;;;;;;;5049477;28;20289;-67
2023/07/08 14:33:09;;;;;;;;;;;;;;;;;;5050609;28;20436;-67
2023/07/08 14:35:36;;;;;;;;;;;;;;;;;;5049937;28;19931;-67
2023/07/08 14:38:02;;;;;;;;;;;;;;;;;;5050774;28;19925;-67
2023/07/08 14:40:32;;;;;;;;;;;;;;;;;;5051019;28;20015;-66
2023/07/08 14:43:00;;;;;;;;;;;;;;;;;;5050696;28;20370;-67
2023/07/08 14:45:29;;;;;;;;;;;;;;;;;;5050783;28;20404;-67
2023/07/08 14:47:56;;;;;;;;;;;;;;;;;;5050845;28;20020;-67
2023/07/08 14:50:22;;;;;;;;;;;;;;;;;;5050854;28;19925;-67
2023/07/08 14:52:49;;;;;;;;;;;;;;;;;;5050593;28;19925;-67
2023/07/08 14:55:15;;;;;;;;;;;;;;;;;;5051387;28;19929;-67
2023/07/08 14:57:44;;;;;;;;;;;;;;;;;;5050744;28;19925;-67
2023/07/08 15:00:11;;;;;;;;;;;;;;;;;;5050084;28;19925;-67
2023/07/08 15:02:40;;;;;;;;;;;;;;;;;;5049559;28;19925;-67
2023/07/08 15:05:09;;;;;;;;;;;;;;;;;;5050274;28;19931;-67
2023/07/08 15:07:36;;;;;;;;;;;;;;;;;;5050513;28;19925;-67
2023/07/08 15:10:02;;;;;;;;;;;;;;;;;;5050042;28;19924;-67
2023/07/08 15:12:29;;;;;;;;;;;;;;;;;;5050426;28;20406;-67
2023/07/08 15:14:55;;;;;;;;;;;;;;;;;;5050001;28;19950;-66
2023/07/08 15:17:21;;;;;;;;;;;;;;;;;;5050722;28;19931;-67
2023/07/08 15:19:49;;;;;;;;;;;;;;;;;;5048945;28;19924;-67
2023/07/08 15:22:15;;;;;;;;;;;;;;;;;;5050361;28;19925;-67
2023/07/08 15:24:42;;;;;;;;;;;;;;;;;;5049916;28;20378;-67
2023/07/08 15:27:10;;;;;;;;;;;;;;;;;;5050119;28;20216;-67
2023/07/08 15:29:36;;;;;;;;;;;;;;;;;;5050133;28;20370;-67
2023/07/08 15:32:03;;;;;;;;;;;;;;;;;;5049301;28;19948;-67
2023/07/08 15:34:29;;;;;;;;;;;;;;;;;;5039753;28;19931;-67
2023/07/08 15:36:57;;;;;;;;;;;;;;;;;;5050491;28;19979;-67
2023/07/08 15:39:23;;;;;;;;;;;;;;;;;;5051091;28;19979;-67
2023/07/08 15:41:50;;;;;;;;;;;;;;;;;;5054328;22;19925;-67
2023/07/08 15:44:16;;;;;;;;;;;;;;;;;;5030430;28;19936;-67
2023/07/08 15:46:44;;;;;;;;;;;;;;;;;;5029762;28;19925;-67
2023/07/08 15:49:14;;;;;;;;;;;;;;;;;;5030336;28;19931;-67
2023/07/08 15:51:40;;;;;;;;;;;;;;;;;;5029112;28;19932;-67
2023/07/08 15:54:08;;;;;;;;;;;;;;;;;;5030058;28;19926;-66
2023/07/08 15:56:34;;;;;;;;;;;;;;;;;;5029485;28;20394;-66
2023/07/08 15:59:01;;;;;;;;;;;;;;;;;;5030426;28;19931;-65
2023/07/08 16:01:28;;;;;;;;;;;;;;;;;;5029850;28;19926;-67
2023/07/08 16:03:54;;;;;;;;;;;;;;;;;;5044837;28;19934;-67
2023/07/08 16:06:21;;;;;;;;;;;;;;;;;;5050219;28;19931;-66
2023/07/08 16:08:47;;;;;;;;;;;;;;;;;;5049403;28;19925;-66
2023/07/08 16:11:15;;;;;;;;;;;;;;;;;;5049434;28;19929;-65
2023/07/08 16:13:43;;;;;;;;;;;;;;;;;;5049702;28;20394;-65
2023/07/08 16:16:10;;;;;;;;;;;;;;;;;;5050391;28;20009;-66
2023/07/08 16:18:36;;;;;;;;;;;;;;;;;;5049736;28;20004;-67
2023/07/08 16:21:03;;;;;;;;;;;;;;;;;;5049606;28;20357;-67
2023/07/08 16:23:29;;;;;;;;;;;;;;;;;;5049536;28;20015;-66
2023/07/08 16:25:56;;;;;;;;;;;;;;;;;;5049773;28;20378;-64
2023/07/08 16:28:28;;;;;;;;;;;;;;;;;;5049273;28;19986;-69
2023/07/08 16:30:55;;;;;;;;;;;;;;;;;;5050907;28;19931;-66
2023/07/08 16:33:22;;;;;;;;;;;;;;;;;;5040653;28;19925;-68
2023/07/08 16:35:48;;;;;;;;;;;;;;;;;;5032546;28;19932;-64
2023/07/08 16:38:15;;;;;;;;;;;;;;;;;;5033487;28;19929;-65
2023/07/08 16:40:42;;;;;;;;;;;;;;;;;;5032666;28;19948;-67
2023/07/08 16:43:16;;;;;;;;;;;;;;;;;;5033642;28;19929;-67
2023/07/08 16:45:44;;;;;;;;;;;;;;;;;;5033186;28;19925;-65
2023/07/08 16:48:10;;;;;;;;;;;;;;;;;;5033203;28;19972;-65
2023/07/08 16:50:37;;;;;;;;;;;;;;;;;;5032125;28;19925;-65